createdAt,value
2018-06-29T00:00:32.412Z,4.30
2018-06-29T00:03:02.327Z,3.90
2018-06-29T00:05:32.260Z,3.83
2018-06-29T00:08:02.171Z,5.03
2018-06-29T00:10:32.088Z,4.20
2018-06-29T00:13:02.008Z,5.33
2018-06-29T00:15:32.092Z,6.27
2018-06-29T00:18:01.860Z,4.20
2018-06-29T00:20:31.773Z,4.40
2018-06-29T00:23:01.693Z,4.20
2018-06-29T00:25:31.616Z,4.80
2018-06-29T00:28:01.524Z,4.50
2018-06-29T00:30:31.448Z,6.50
2018-06-29T00:33:01.359Z,4.23
2018-06-29T00:35:31.275Z,5.90
2018-06-29T00:38:01.232Z,5.23
2018-06-29T00:40:31.155Z,5.03
2018-06-29T00:43:01.138Z,4.50
2018-06-29T00:45:31.046Z,4.17
2018-06-29T00:48:00.946Z,4.37
2018-06-29T00:50:30.849Z,4.20
2018-06-29T00:53:00.753Z,4.17
2018-06-29T00:55:30.654Z,4.40
2018-06-29T00:58:00.554Z,4.30
2018-06-29T01:00:30.457Z,4.20
2018-06-29T01:03:00.358Z,4.97
2018-06-29T01:05:30.262Z,5.00
2018-06-29T01:08:00.155Z,4.83
2018-06-29T01:10:30.058Z,6.17
2018-06-29T01:12:59.970Z,4.77
2018-06-29T01:15:29.882Z,4.90
2018-06-29T01:17:59.774Z,5.07
2018-06-29T01:20:29.675Z,4.83
2018-06-29T01:22:59.573Z,6.33
2018-06-29T01:25:29.482Z,4.80
2018-06-29T01:27:59.371Z,5.27
2018-06-29T01:30:29.279Z,4.70
2018-06-29T01:32:59.194Z,5.10
2018-06-29T01:35:29.101Z,7.70
2018-06-29T01:37:58.997Z,5.30
2018-06-29T01:40:28.899Z,5.70
2018-06-29T01:42:58.807Z,8.97
2018-06-29T01:45:28.726Z,4.77
2018-06-29T01:47:58.698Z,4.70
2018-06-29T01:50:28.605Z,6.27
2018-06-29T01:52:58.506Z,4.83
2018-06-29T01:55:28.422Z,5.03
2018-06-29T01:57:58.328Z,5.47
2018-06-29T02:00:28.242Z,5.10
2018-06-29T02:02:58.141Z,5.77
2018-06-29T02:05:28.050Z,5.50
2018-06-29T02:07:57.994Z,4.30
2018-06-29T02:10:27.870Z,5.37
2018-06-29T02:12:57.778Z,4.20
2018-06-29T02:15:27.742Z,5.37
2018-06-29T02:17:57.642Z,6.00
2018-06-29T02:20:27.662Z,6.97
2018-06-29T02:22:57.560Z,4.83
2018-06-29T02:25:27.502Z,5.03
2018-06-29T02:27:57.398Z,5.43
2018-06-29T02:30:27.340Z,4.20
2018-06-29T02:32:57.377Z,6.43
2018-06-29T02:35:27.303Z,4.43
2018-06-29T02:37:57.219Z,4.00
2018-06-29T02:40:27.146Z,4.13
2018-06-29T02:42:57.061Z,4.40
2018-06-29T02:45:26.970Z,4.03
2018-06-29T02:47:56.902Z,5.63
2018-06-29T02:50:26.794Z,8.07
2018-06-29T02:52:56.766Z,4.20
2018-06-29T02:55:26.714Z,4.10
2018-06-29T02:57:56.614Z,6.07
2018-06-29T03:00:26.540Z,4.50
2018-06-29T03:02:56.478Z,5.33
2018-06-29T03:05:26.391Z,6.13
2018-06-29T03:07:56.298Z,8.07
2018-06-29T03:10:26.209Z,4.40
2018-06-29T03:12:56.130Z,4.53
2018-06-29T03:15:26.046Z,4.50
2018-06-29T03:17:55.953Z,8.53
2018-06-29T03:20:25.862Z,4.77
2018-06-29T03:22:56.230Z,4.37
2018-06-29T03:25:26.158Z,6.33
2018-06-29T03:27:56.070Z,5.30
2018-06-29T03:30:25.981Z,10.27
2018-06-29T03:32:55.939Z,3.97
2018-06-29T03:35:25.776Z,4.57
2018-06-29T03:37:55.826Z,4.87
2018-06-29T03:40:25.791Z,6.07
2018-06-29T03:42:55.907Z,5.70
2018-06-29T03:45:25.802Z,4.27
2018-06-29T03:47:55.709Z,4.30
2018-06-29T03:50:25.618Z,6.20
2018-06-29T03:52:55.523Z,6.70
2018-06-29T03:55:25.426Z,4.57
2018-06-29T03:57:55.414Z,4.20
2018-06-29T04:00:25.357Z,5.00
2018-06-29T04:02:55.238Z,4.80
2018-06-29T04:05:25.135Z,4.53
2018-06-29T04:07:55.106Z,4.77
2018-06-29T04:10:25.016Z,4.70
2018-06-29T04:12:54.956Z,5.33
2018-06-29T04:15:24.850Z,4.60
2018-06-29T04:17:54.742Z,4.43
2018-06-29T04:20:24.899Z,8.50
2018-06-29T04:22:55.194Z,4.37
2018-06-29T04:25:25.106Z,4.60
2018-06-29T04:27:55.087Z,4.93
2018-06-29T04:30:24.988Z,6.13
2018-06-29T04:32:54.927Z,5.27
2018-06-29T04:35:24.808Z,5.23
2018-06-29T04:37:54.748Z,4.70
2018-06-29T04:40:24.647Z,6.30
2018-06-29T04:42:54.566Z,4.10
2018-06-29T04:45:24.473Z,11.43
2018-06-29T04:47:54.386Z,4.63
2018-06-29T04:50:24.274Z,8.63
2018-06-29T04:52:54.422Z,7.53
2018-06-29T04:55:24.322Z,7.10
2018-06-29T04:57:54.226Z,5.23
2018-06-29T05:00:24.229Z,4.47
2018-06-29T05:02:54.133Z,7.43
2018-06-29T05:05:24.390Z,5.00
2018-06-29T05:07:54.296Z,4.27
2018-06-29T05:10:24.193Z,5.80
2018-06-29T05:12:54.114Z,5.13
2018-06-29T05:15:24.021Z,6.80
2018-06-29T05:17:53.926Z,5.77
2018-06-29T05:20:23.852Z,5.07
2018-06-29T05:22:53.811Z,10.53
2018-06-29T05:25:23.709Z,6.63
2018-06-29T05:27:53.618Z,3.90
2018-06-29T05:30:23.522Z,4.43
2018-06-29T05:32:53.426Z,4.17
2018-06-29T05:35:23.320Z,6.13
2018-06-29T05:37:53.230Z,5.10
2018-06-29T05:40:23.133Z,5.63
2018-06-29T05:42:53.033Z,5.33
2018-06-29T05:45:22.931Z,4.17
2018-06-29T05:47:52.841Z,7.77
2018-06-29T05:50:22.738Z,4.50
2018-06-29T05:52:52.659Z,7.67
2018-06-29T05:55:22.614Z,7.37
2018-06-29T05:57:52.519Z,6.00
2018-06-29T06:00:22.476Z,5.90
2018-06-29T06:02:52.379Z,4.15
2018-06-29T06:05:22.289Z,4.30
2018-06-29T06:07:52.213Z,5.50
2018-06-29T06:10:22.122Z,3.60
2018-06-29T06:12:52.065Z,6.03
2018-06-29T06:15:21.976Z,4.30
2018-06-29T06:17:51.893Z,3.97
2018-06-29T06:20:21.793Z,4.33
2018-06-29T06:22:51.687Z,6.47
2018-06-29T06:25:21.604Z,6.17
2018-06-29T06:27:51.614Z,7.22
2018-06-29T06:30:21.530Z,3.65
2018-06-29T06:32:51.426Z,5.03
2018-06-29T06:35:21.330Z,4.20
2018-06-29T06:37:51.381Z,6.50
2018-06-29T06:40:21.292Z,4.37
2018-06-29T06:42:51.194Z,7.90
2018-06-29T06:45:21.102Z,4.93
2018-06-29T06:47:51.008Z,4.27
2018-06-29T06:50:20.910Z,6.80
2018-06-29T06:52:50.818Z,4.47
2018-06-29T06:55:20.781Z,4.40
2018-06-29T06:57:50.674Z,8.73
2018-06-29T07:00:20.630Z,4.22
2018-06-29T07:02:50.606Z,6.07
2018-06-29T07:05:20.515Z,5.60
2018-06-29T07:07:50.415Z,6.33
2018-06-29T07:10:20.333Z,4.62
2018-06-29T07:12:50.303Z,7.00
2018-06-29T07:15:20.146Z,5.85
2018-06-29T07:17:50.050Z,4.47
2018-06-29T07:20:19.959Z,6.90
2018-06-29T07:22:49.853Z,4.37
2018-06-29T07:25:19.759Z,5.45
2018-06-29T07:27:49.658Z,3.75
2018-06-29T07:30:19.570Z,5.25
2018-06-29T07:32:49.471Z,6.62
2018-06-29T07:35:19.377Z,5.20
2018-06-29T07:37:49.286Z,5.85
2018-06-29T07:40:19.191Z,6.47
2018-06-29T07:42:49.089Z,7.65
2018-06-29T07:45:19.006Z,4.28
2018-06-29T07:47:48.906Z,5.55
2018-06-29T07:50:18.814Z,7.03
2018-06-29T07:52:49.097Z,9.93
2018-06-29T07:55:18.957Z,8.05
2018-06-29T07:57:48.853Z,4.10
2018-06-29T08:00:18.765Z,5.10
2018-06-29T08:02:48.704Z,5.50
2018-06-29T08:05:18.553Z,4.47
2018-06-29T08:07:48.457Z,7.25
2018-06-29T08:10:18.358Z,4.55
2018-06-29T08:12:48.273Z,4.20
2018-06-29T08:15:18.195Z,6.87
2018-06-29T08:17:48.103Z,7.83
2018-06-29T08:20:18.014Z,4.30
2018-06-29T08:22:47.918Z,9.60
2018-06-29T08:25:17.962Z,5.17
2018-06-29T08:27:47.870Z,6.92
2018-06-29T08:30:17.774Z,6.35
2018-06-29T08:32:47.671Z,8.75
2018-06-29T08:35:17.574Z,5.08
2018-06-29T08:37:47.483Z,7.12
2018-06-29T08:40:17.386Z,7.25
2018-06-29T08:42:47.285Z,5.65
2018-06-29T08:45:17.217Z,7.10
2018-06-29T08:47:47.125Z,7.42
2018-06-29T08:50:17.037Z,6.47
2018-06-29T08:52:46.956Z,6.95
2018-06-29T08:55:16.860Z,8.20
2018-06-29T08:57:46.802Z,6.85
2018-06-29T09:00:16.703Z,6.67
2018-06-29T09:02:46.633Z,5.90
2018-06-29T09:05:16.570Z,7.87
2018-06-29T09:07:46.493Z,5.83
2018-06-29T09:10:16.398Z,9.08
2018-06-29T09:12:46.326Z,8.55
2018-06-29T09:15:16.242Z,9.25
2018-06-29T09:17:46.301Z,6.80
2018-06-29T09:20:16.206Z,5.40
2018-06-29T09:22:46.167Z,5.90
2018-06-29T09:25:16.380Z,5.22
2018-06-29T09:27:46.345Z,7.45
2018-06-29T09:30:17.148Z,7.90
2018-06-29T09:32:47.085Z,8.18
2018-06-29T09:35:16.989Z,7.70
2018-06-29T09:37:46.938Z,4.60
2018-06-29T09:40:16.856Z,5.12
2018-06-29T09:42:46.799Z,5.00
2018-06-29T09:45:16.789Z,6.80
2018-06-29T09:47:46.792Z,7.25
2018-06-29T09:50:16.629Z,6.78
2018-06-29T09:52:46.576Z,5.58
2018-06-29T09:55:16.474Z,7.28
2018-06-29T09:57:46.515Z,6.00
2018-06-29T10:00:20.561Z,9.40
2018-06-29T10:02:50.466Z,7.15
2018-06-29T10:05:20.370Z,5.08
2018-06-29T10:07:50.282Z,5.62
2018-06-29T10:10:20.189Z,8.18
2018-06-29T10:12:50.222Z,5.10
2018-06-29T10:15:20.483Z,6.67
2018-06-29T10:17:50.502Z,8.48
2018-06-29T10:20:20.430Z,8.25
2018-06-29T10:22:50.327Z,8.60
2018-06-29T10:25:20.324Z,7.37
2018-06-29T10:27:50.142Z,5.37
2018-06-29T10:30:20.058Z,5.67
2018-06-29T10:32:49.979Z,5.15
2018-06-29T10:35:19.882Z,7.85
2018-06-29T10:37:49.810Z,5.28
2018-06-29T10:40:19.715Z,9.25
2018-06-29T10:42:49.646Z,5.75
2018-06-29T10:45:19.541Z,6.47
2018-06-29T10:47:49.462Z,5.55
2018-06-29T10:50:19.357Z,6.08
2018-06-29T10:52:49.290Z,6.10
2018-06-29T10:55:19.175Z,5.58
2018-06-29T10:57:49.085Z,10.45
2018-06-29T11:00:18.997Z,11.65
2018-06-29T11:02:48.929Z,5.28
2018-06-29T11:05:18.836Z,8.38
2018-06-29T11:07:48.761Z,5.67
2018-06-29T11:10:18.657Z,5.60
2018-06-29T11:12:48.582Z,9.65
2018-06-29T11:15:18.498Z,6.28
2018-06-29T11:17:48.429Z,9.08
2018-06-29T11:20:18.415Z,6.12
2018-06-29T11:22:48.322Z,5.25
2018-06-29T11:25:18.230Z,6.78
2018-06-29T11:27:48.171Z,6.33
2018-06-29T11:30:18.130Z,8.35
2018-06-29T11:32:48.372Z,5.87
2018-06-29T11:35:18.272Z,5.70
2018-06-29T11:37:48.345Z,5.05
2018-06-29T11:40:18.237Z,7.15
2018-06-29T11:42:48.146Z,8.15
2018-06-29T11:45:18.054Z,7.37
2018-06-29T11:47:48.121Z,6.87
2018-06-29T11:50:18.036Z,7.47
2018-06-29T11:52:47.954Z,4.62
2018-06-29T11:55:17.861Z,5.22
2018-06-29T11:57:47.965Z,6.10
2018-06-29T12:00:17.874Z,5.60
2018-06-29T12:02:47.821Z,7.08
2018-06-29T12:05:17.730Z,6.05
2018-06-29T12:07:47.931Z,9.45
2018-06-29T12:10:17.906Z,8.18
2018-06-29T12:12:47.866Z,5.08
2018-06-29T12:15:17.790Z,6.47
2018-06-29T12:17:47.634Z,8.35
2018-06-29T12:20:17.454Z,6.47
2018-06-29T12:22:47.446Z,6.62
2018-06-29T12:25:17.405Z,7.35
2018-06-29T12:27:47.538Z,7.65
2018-06-29T12:30:17.455Z,5.03
2018-06-29T12:32:47.362Z,4.83
2018-06-29T12:35:17.274Z,8.03
2018-06-29T12:37:47.493Z,4.65
2018-06-29T12:40:17.417Z,7.95
2018-06-29T12:42:47.319Z,5.47
2018-06-29T12:45:17.227Z,5.78
2018-06-29T12:47:47.289Z,4.78
2018-06-29T12:50:17.213Z,4.45
2018-06-29T12:52:47.181Z,6.22
2018-06-29T12:55:17.102Z,6.80
2018-06-29T12:57:47.108Z,6.83
2018-06-29T13:00:16.991Z,4.95
2018-06-29T13:02:46.894Z,4.70
2018-06-29T13:05:16.825Z,6.72
2018-06-29T13:07:46.834Z,10.03
2018-06-29T13:10:16.802Z,6.72
2018-06-29T13:12:46.706Z,6.30
2018-06-29T13:15:16.622Z,5.17
2018-06-29T13:17:46.543Z,7.40
2018-06-29T13:20:16.463Z,7.95
2018-06-29T13:22:46.358Z,7.00
2018-06-29T13:25:16.336Z,7.60
2018-06-29T13:27:46.170Z,4.60
2018-06-29T13:30:16.141Z,6.78
2018-06-29T13:32:46.038Z,6.22
2018-06-29T13:35:16.038Z,8.25
2018-06-29T13:37:46.130Z,5.70
2018-06-29T13:40:16.050Z,11.68
2018-06-29T13:42:45.979Z,4.50
2018-06-29T13:45:15.886Z,7.95
2018-06-29T13:47:45.797Z,11.38
2018-06-29T13:50:15.709Z,6.00
2018-06-29T13:52:45.614Z,7.90
2018-06-29T13:55:15.510Z,5.50
2018-06-29T13:57:45.458Z,7.53
2018-06-29T14:00:15.358Z,5.50
2018-06-29T14:02:45.332Z,6.30
2018-06-29T14:05:15.262Z,6.97
2018-06-29T14:07:45.981Z,5.70
2018-06-29T14:10:15.930Z,9.10
2018-06-29T14:12:45.957Z,4.95
2018-06-29T14:15:15.899Z,7.05
2018-06-29T14:17:45.868Z,5.90
2018-06-29T14:20:15.878Z,5.70
2018-06-29T14:22:45.777Z,9.10
2018-06-29T14:25:15.702Z,4.90
2018-06-29T14:27:45.593Z,7.28
2018-06-29T14:30:15.510Z,7.55
2018-06-29T14:32:45.418Z,8.68
2018-06-29T14:35:15.330Z,5.95
2018-06-29T14:37:45.230Z,4.62
2018-06-29T14:40:15.158Z,7.35
2018-06-29T14:42:45.070Z,5.90
2018-06-29T14:45:14.998Z,28.05
2018-06-29T14:47:44.906Z,6.55
2018-06-29T14:50:14.823Z,8.58
2018-06-29T14:52:44.735Z,5.83
2018-06-29T14:55:14.681Z,7.53
2018-06-29T14:57:44.583Z,6.53
2018-06-29T15:00:14.499Z,5.30
2018-06-29T15:02:44.396Z,6.62
2018-06-29T15:05:14.302Z,7.92
2018-06-29T15:07:44.226Z,7.95
2018-06-29T15:10:14.137Z,5.28
2018-06-29T15:12:44.050Z,4.08
2018-06-29T15:15:13.958Z,6.67
2018-06-29T15:17:43.858Z,5.35
2018-06-29T15:20:13.807Z,4.78
2018-06-29T15:22:43.709Z,4.10
2018-06-29T15:25:13.629Z,6.33
2018-06-29T15:27:43.660Z,5.08
2018-06-29T15:30:13.529Z,6.28
2018-06-29T15:32:43.437Z,6.97
2018-06-29T15:35:13.346Z,6.92
2018-06-29T15:37:43.246Z,8.85
2018-06-29T15:40:13.162Z,5.90
2018-06-29T15:42:43.061Z,6.47
2018-06-29T15:45:13.023Z,4.15
2018-06-29T15:47:43.013Z,6.83
2018-06-29T15:50:12.932Z,5.95
2018-06-29T15:52:42.829Z,5.95
2018-06-29T15:55:12.749Z,4.28
2018-06-29T15:57:42.650Z,3.75
2018-06-29T16:00:12.556Z,6.90
2018-06-29T16:02:42.458Z,6.37
2018-06-29T16:05:12.393Z,4.05
2018-06-29T16:07:42.313Z,8.65
2018-06-29T16:10:12.246Z,5.30
2018-06-29T16:12:42.158Z,4.25
2018-06-29T16:15:12.078Z,8.03
2018-06-29T16:17:42.016Z,7.28
2018-06-29T16:20:12.013Z,7.90
2018-06-29T16:22:41.925Z,4.45
2018-06-29T16:25:11.829Z,5.05
2018-06-29T16:27:41.737Z,7.03
2018-06-29T16:30:11.634Z,5.08
2018-06-29T16:32:41.548Z,4.70
2018-06-29T16:35:11.622Z,4.00
2018-06-29T16:37:41.524Z,5.05
2018-06-29T16:40:11.422Z,6.05
2018-06-29T16:42:41.331Z,8.60
2018-06-29T16:45:11.238Z,6.33
2018-06-29T16:47:41.239Z,4.67
2018-06-29T16:50:11.143Z,4.33
2018-06-29T16:52:41.089Z,5.15
2018-06-29T16:55:10.981Z,4.95
2018-06-29T16:57:40.890Z,5.03
2018-06-29T17:00:10.835Z,6.35
2018-06-29T17:02:40.733Z,8.98
2018-06-29T17:05:10.643Z,5.17
2018-06-29T17:07:40.693Z,9.83
2018-06-29T17:10:10.617Z,5.95
2018-06-29T17:12:40.530Z,4.03
2018-06-29T17:15:10.451Z,5.58
2018-06-29T17:17:40.361Z,4.05
2018-06-29T17:20:10.344Z,4.35
2018-06-29T17:22:40.283Z,6.53
2018-06-29T17:25:09.990Z,4.72
2018-06-29T17:27:39.850Z,6.30
2018-06-29T17:30:09.760Z,7.15
2018-06-29T17:32:39.725Z,7.22
2018-06-29T17:35:09.631Z,6.08
2018-06-29T17:37:39.569Z,7.22
2018-06-29T17:40:09.470Z,4.65
2018-06-29T17:42:39.387Z,3.70
2018-06-29T17:45:09.289Z,4.95
2018-06-29T17:47:39.210Z,4.28
2018-06-29T17:50:09.121Z,3.95
2018-06-29T17:52:39.043Z,4.75
2018-06-29T17:55:09.078Z,3.60
2018-06-29T17:57:38.877Z,4.95
2018-06-29T18:00:08.788Z,6.55
2018-06-29T18:02:38.706Z,6.72
2018-06-29T18:05:08.682Z,3.58
2018-06-29T18:07:38.569Z,5.08
2018-06-29T18:10:08.572Z,4.15
2018-06-29T18:12:38.497Z,3.70
2018-06-29T18:15:08.423Z,4.03
2018-06-29T18:17:38.496Z,3.87
2018-06-29T18:20:08.438Z,4.12
2018-06-29T18:22:38.438Z,3.77
2018-06-29T18:25:08.440Z,3.70
2018-06-29T18:27:38.306Z,5.03
2018-06-29T18:30:08.950Z,3.87
2018-06-29T18:32:38.866Z,4.45
2018-06-29T18:35:08.837Z,3.30
2018-06-29T18:37:38.754Z,4.50
2018-06-29T18:40:08.694Z,4.72
2018-06-29T18:42:38.655Z,4.85
2018-06-29T18:45:08.601Z,5.10
2018-06-29T18:47:38.514Z,3.92
2018-06-29T18:50:08.473Z,3.72
2018-06-29T18:52:38.390Z,5.58
2018-06-29T18:55:08.362Z,5.58
2018-06-29T18:57:38.327Z,5.33
2018-06-29T19:00:08.219Z,3.83
2018-06-29T19:02:38.149Z,3.85
2018-06-29T19:05:08.119Z,5.58
2018-06-29T19:07:38.107Z,8.15
2018-06-29T19:10:07.998Z,3.92
2018-06-29T19:12:37.917Z,4.67
2018-06-29T19:15:07.985Z,9.08
2018-06-29T19:17:37.925Z,6.75
2018-06-29T19:20:08.046Z,6.70
2018-06-29T19:22:38.373Z,9.30
2018-06-29T19:25:08.366Z,15.98
2018-06-29T19:27:38.471Z,28.70
2018-06-29T19:30:08.601Z,22.27
2018-06-29T19:32:38.714Z,27.07
2018-06-29T19:35:08.793Z,24.83
2018-06-29T19:37:39.067Z,37.80
2018-06-29T19:40:09.210Z,26.03
2018-06-29T19:42:39.153Z,27.10
2018-06-29T19:45:09.168Z,29.20
2018-06-29T19:47:39.034Z,43.53
2018-06-29T19:50:09.014Z,48.87
2018-06-29T19:52:39.125Z,27.13
2018-06-29T19:55:09.094Z,25.57
2018-06-29T19:57:39.034Z,15.63
2018-06-29T20:00:09.016Z,7.77
2018-06-29T20:02:38.985Z,13.90
2018-06-29T20:05:08.974Z,8.70
2018-06-29T20:07:38.945Z,8.97
2018-06-29T20:10:09.430Z,4.27
2018-06-29T20:12:39.350Z,4.73
2018-06-29T20:15:09.854Z,9.73
2018-06-29T20:17:39.778Z,6.83
2018-06-29T20:20:10.356Z,6.77
2018-06-29T20:22:40.286Z,4.60
2018-06-29T20:25:10.222Z,4.90
2018-06-29T20:27:40.129Z,6.23
2018-06-29T20:30:10.245Z,3.80
2018-06-29T20:32:40.167Z,3.60
2018-06-29T20:35:10.094Z,3.50
2018-06-29T20:37:40.029Z,3.60
2018-06-29T20:40:10.009Z,4.40
2018-06-29T20:42:39.894Z,3.60
2018-06-29T20:45:09.839Z,5.30
2018-06-29T20:47:39.730Z,5.03
2018-06-29T20:50:09.678Z,4.90
2018-06-29T20:52:39.567Z,3.40
2018-06-29T20:55:09.497Z,3.40
2018-06-29T20:57:39.386Z,3.07
2018-06-29T21:00:09.432Z,3.03
2018-06-29T21:02:39.340Z,4.20
2018-06-29T21:05:09.794Z,4.70
2018-06-29T21:07:39.998Z,3.20
2018-06-29T21:10:09.918Z,2.77
2018-06-29T21:12:39.821Z,3.10
2018-06-29T21:15:09.758Z,3.63
2018-06-29T21:17:39.657Z,3.20
2018-06-29T21:20:09.569Z,4.60
2018-06-29T21:22:39.476Z,4.40
2018-06-29T21:25:09.509Z,3.00
2018-06-29T21:27:39.386Z,6.93
2018-06-29T21:30:09.301Z,4.03
2018-06-29T21:32:39.020Z,5.47
2018-06-29T21:35:08.829Z,2.70
2018-06-29T21:37:38.819Z,2.93
2018-06-29T21:40:08.730Z,5.13
2018-06-29T21:42:38.696Z,3.47
2018-06-29T21:45:08.571Z,3.83
2018-06-29T21:47:38.473Z,4.67
2018-06-29T21:50:08.776Z,2.83
2018-06-29T21:52:38.740Z,3.07
2018-06-29T21:55:08.605Z,2.50
2018-06-29T21:57:38.653Z,2.60
2018-06-29T22:00:11.559Z,3.87
2018-06-29T22:02:41.573Z,2.43
2018-06-29T22:05:12.046Z,2.17
2018-06-29T22:07:41.960Z,2.50
2018-06-29T22:10:11.878Z,3.93
2018-06-29T22:12:41.779Z,4.23
2018-06-29T22:15:15.838Z,2.63
2018-06-29T22:17:45.738Z,4.10
2018-06-29T22:20:15.658Z,4.40
2018-06-29T22:22:45.620Z,2.47
2018-06-29T22:25:15.554Z,4.07
2018-06-29T22:27:45.447Z,3.50
2018-06-29T22:30:15.377Z,2.80
2018-06-29T22:32:45.282Z,2.50
2018-06-29T22:35:15.270Z,2.63
2018-06-29T22:37:45.407Z,11.00
2018-06-29T22:40:15.339Z,4.67
2018-06-29T22:42:45.287Z,5.40
2018-06-29T22:45:15.075Z,4.20
2018-06-29T22:47:44.909Z,3.00
2018-06-29T22:50:14.825Z,2.37
2018-06-29T22:52:44.737Z,3.30
2018-06-29T22:55:14.788Z,3.90
2018-06-29T22:57:44.705Z,6.23
2018-06-29T23:00:14.606Z,2.70
2018-06-29T23:02:44.521Z,2.83
2018-06-29T23:05:14.430Z,2.57
2018-06-29T23:07:44.474Z,2.60
2018-06-29T23:12:51.502Z,3.33
2018-06-29T23:15:21.437Z,5.50
2018-06-29T23:17:51.341Z,4.50
2018-06-29T23:20:21.406Z,2.97
2018-06-29T23:22:51.077Z,2.50
2018-06-29T23:25:20.874Z,2.50
2018-06-29T23:27:50.787Z,4.23
2018-06-29T23:30:20.706Z,4.37
2018-06-29T23:32:50.621Z,3.53
2018-06-29T23:35:20.546Z,3.43
2018-06-29T23:37:50.447Z,5.17
2018-06-29T23:40:20.365Z,4.87
2018-06-29T23:42:50.289Z,6.73
2018-06-29T23:45:20.243Z,5.30
2018-06-29T23:47:50.154Z,3.93
2018-06-29T23:50:20.098Z,3.90
2018-06-29T23:52:50.152Z,5.17
2018-06-29T23:55:20.061Z,3.03
2018-06-29T23:57:49.995Z,2.53
